New York, New York
Traffic Map
Current Weather Conditions
New York, New York
Clear
Clear
76°
Feels Like: 76°
Wind Chill: 76° Ceiling: Unl
Heat Index: 76° Visibility: 10mi
Dew Point: 38° Wind: 5mph
Humidity: 25% Direction: ° ()
Pressure: 30.32in Gusts: 0mph
Raw Report DataKNYC 211951Z AUTO VRB04KT 10SM CLR 24/03 A3032 RMK AO2 SLP258 T02440033 $
Traffic Incident Summary
Active as of:
Severity:
Category:
InformationThere was an issue retrieving the traffic information for this location. Please try a different location or try again shortly.
Advertisements